createdAt,value
2019-06-08T00:02:34.708Z,86.00
2019-06-08T00:07:39.104Z,85.60
2019-06-08T00:12:43.435Z,85.60
2019-06-08T00:17:47.892Z,85.30
2019-06-08T00:22:52.300Z,84.70
2019-06-08T00:27:56.606Z,84.20
2019-06-08T00:33:01.005Z,83.60
2019-06-08T00:38:05.337Z,82.90
2019-06-08T00:48:16.743Z,84.00
2019-06-08T00:53:27.384Z,82.00
2019-06-08T00:58:31.835Z,82.20
2019-06-08T01:03:36.290Z,80.90
2019-06-08T01:08:55.996Z,81.70
2019-06-08T01:14:00.584Z,82.40
2019-06-08T01:19:06.501Z,82.10
2019-06-08T01:24:10.881Z,81.70
2019-06-08T01:29:15.276Z,81.60
2019-06-08T01:34:20.568Z,81.90
2019-06-08T01:39:25.202Z,82.30
2019-06-08T01:44:30.040Z,82.60
2019-06-08T01:49:34.491Z,82.30
2019-06-08T01:54:39.071Z,82.20
2019-06-08T01:59:43.455Z,82.40
2019-06-08T02:04:50.438Z,83.20
2019-06-08T02:09:54.831Z,82.80
2019-06-08T02:14:59.139Z,83.10
2019-06-08T02:20:05.263Z,83.10
2019-06-08T02:25:09.992Z,82.60
2019-06-08T02:30:17.227Z,82.00
2019-06-08T02:35:21.674Z,82.00
2019-06-08T02:40:27.475Z,81.80
2019-06-08T02:45:34.059Z,82.40
2019-06-08T02:50:53.313Z,82.60
2019-06-08T02:55:57.700Z,82.90
2019-06-08T03:01:04.521Z,83.20
2019-06-08T03:06:08.812Z,82.30
2019-06-08T03:11:14.659Z,81.60
2019-06-08T03:16:19.069Z,81.70
2019-06-08T03:21:25.463Z,81.80
2019-06-08T03:26:29.850Z,82.20
2019-06-08T03:31:39.141Z,81.70
2019-06-08T03:36:53.564Z,81.80
2019-06-08T03:41:46.721Z,82.00
2019-06-08T03:46:51.206Z,82.10
2019-06-08T03:51:55.587Z,82.70
2019-06-08T03:57:00.007Z,83.10
2019-06-08T04:02:04.302Z,82.70
2019-06-08T04:07:08.679Z,83.30
2019-06-08T04:12:12.996Z,83.10
2019-06-08T04:17:17.639Z,82.90
2019-06-08T04:22:22.035Z,82.80
2019-06-08T04:27:26.729Z,83.70
2019-06-08T04:32:31.361Z,86.00
2019-06-08T04:37:35.675Z,86.80
2019-06-08T04:42:41.646Z,87.00
2019-06-08T04:47:47.765Z,86.50
2019-06-08T04:52:52.161Z,86.10
2019-06-08T04:57:56.458Z,86.00
2019-06-08T05:03:00.848Z,85.50
2019-06-08T05:08:05.308Z,85.90
2019-06-08T05:13:09.925Z,85.40
2019-06-08T05:18:15.914Z,84.70
2019-06-08T05:23:20.221Z,84.60
2019-06-08T05:28:25.180Z,84.50
2019-06-08T05:33:29.826Z,84.70
2019-06-08T05:38:34.225Z,84.60
2019-06-08T05:43:39.664Z,84.60
2019-06-08T05:48:44.049Z,85.30
2019-06-08T05:53:52.125Z,85.40
2019-06-08T06:29:38.928Z,87.00
2019-06-08T06:59:47.146Z,91.10
2019-06-08T07:04:12.924Z,91.50
2019-06-08T07:09:17.233Z,92.00
2019-06-08T07:14:21.546Z,92.20
2019-06-08T07:19:25.983Z,92.30
2019-06-08T07:24:30.433Z,92.60
2019-06-08T07:29:34.757Z,92.40
2019-06-08T07:34:41.147Z,91.90
2019-06-08T07:39:45.408Z,91.10
2019-06-08T07:44:50.832Z,90.50
2019-06-08T07:50:06.218Z,89.40
2019-06-08T07:55:11.000Z,87.80
2019-06-08T08:00:15.723Z,85.30
2019-06-08T08:05:20.044Z,84.30
2019-06-08T08:10:25.083Z,85.90
2019-06-08T08:15:29.487Z,84.50
2019-06-08T08:20:33.791Z,84.20
2019-06-08T08:25:38.185Z,84.30
2019-06-08T08:30:42.585Z,83.30
2019-06-08T08:35:48.267Z,79.80
2019-06-08T08:40:54.657Z,79.20
2019-06-08T08:46:01.813Z,78.60
2019-06-08T08:51:08.385Z,76.00
2019-06-08T08:56:12.531Z,76.30
2019-06-08T09:01:20.243Z,77.10
2019-06-08T09:06:22.971Z,75.20
2019-06-08T09:11:28.850Z,74.70
2019-06-08T09:16:33.469Z,73.00
2019-06-08T09:21:38.452Z,70.50
2019-06-08T09:26:42.876Z,72.30
2019-06-08T09:31:49.075Z,73.10
2019-06-08T09:36:54.959Z,73.00
2019-06-08T09:42:01.916Z,72.20
2019-06-08T09:47:12.161Z,70.40
2019-06-08T09:52:12.330Z,70.80
2019-06-08T09:57:18.900Z,69.70
2019-06-08T10:02:23.042Z,69.50
2019-06-08T10:07:31.082Z,72.20
2019-06-08T10:12:33.663Z,73.40
2019-06-08T10:17:38.195Z,70.30
2019-06-08T10:22:42.589Z,72.10
2019-06-08T10:27:46.881Z,69.60
2019-06-08T10:32:51.355Z,68.20
2019-06-08T10:37:58.540Z,70.20
2019-06-08T10:43:03.408Z,69.30
2019-06-08T10:48:09.603Z,69.80
2019-06-08T10:53:16.646Z,69.60
2019-06-08T10:58:21.510Z,72.90
2019-06-08T11:03:30.434Z,68.40
2019-06-08T11:08:32.082Z,67.60
2019-06-08T11:13:36.390Z,71.40
2019-06-08T11:18:40.780Z,74.90
2019-06-08T11:23:48.842Z,79.20
2019-06-08T11:28:51.456Z,85.60
2019-06-08T11:33:58.486Z,89.50
2019-06-08T11:39:02.562Z,91.90
2019-06-08T11:44:11.845Z,92.70
2019-06-08T11:49:15.160Z,93.60
2019-06-08T11:54:32.716Z,92.70
2019-06-08T11:59:28.518Z,95.80
2019-06-08T12:04:33.166Z,90.20
2019-06-08T12:09:37.556Z,89.60
2019-06-08T12:14:41.943Z,91.60
2019-06-08T12:19:47.589Z,94.30
2019-06-08T12:24:52.110Z,94.70
2019-06-08T12:29:58.775Z,93.40
2019-06-08T12:35:02.615Z,92.80
2019-06-08T12:40:09.799Z,87.80
2019-06-08T12:45:13.470Z,88.00
2019-06-08T12:50:18.234Z,88.60
2019-06-08T12:55:25.266Z,85.00
2019-06-08T13:00:29.104Z,73.70
2019-06-08T13:05:33.484Z,77.50
2019-06-08T13:10:38.345Z,74.20
2019-06-08T13:15:42.851Z,70.00
2019-06-08T13:20:51.383Z,67.00
2019-06-08T13:25:53.304Z,62.00
2019-06-08T13:30:58.103Z,60.80
2019-06-08T13:36:02.595Z,58.00
2019-06-08T13:41:08.790Z,55.80
2019-06-08T13:46:13.700Z,52.50
2019-06-08T13:51:20.729Z,52.60
2019-06-08T13:56:24.148Z,48.80
2019-06-08T14:01:30.833Z,49.40
2019-06-08T14:06:34.881Z,46.80
2019-06-08T14:11:39.262Z,46.70
2019-06-08T14:16:43.656Z,47.10
2019-06-08T14:21:47.959Z,48.20
2019-06-08T14:26:52.271Z,48.20
2019-06-08T14:31:57.753Z,47.00
2019-06-08T14:37:02.349Z,45.60
2019-06-08T14:42:08.299Z,44.00
2019-06-08T14:47:15.289Z,43.10
2019-06-08T14:52:22.197Z,42.10
2019-06-08T14:57:28.218Z,44.40
2019-06-08T15:02:32.576Z,42.50
2019-06-08T15:07:38.865Z,42.40
2019-06-08T15:12:43.067Z,42.40
2019-06-08T15:17:47.802Z,40.50
2019-06-08T15:22:52.139Z,39.00
2019-06-08T15:28:00.660Z,41.70
2019-06-08T15:33:02.733Z,44.40
2019-06-08T15:38:08.387Z,48.40
2019-06-08T15:43:12.891Z,61.30
2019-06-08T15:48:20.245Z,61.00
2019-06-08T15:53:24.361Z,59.50
2019-06-08T15:58:29.935Z,54.90
2019-06-08T16:03:35.343Z,50.70
2019-06-08T16:08:39.703Z,48.70
2019-06-08T16:13:44.012Z,45.20
2019-06-08T16:18:48.321Z,42.80
2019-06-08T16:23:52.706Z,41.50
2019-06-08T16:28:57.317Z,40.50
2019-06-08T16:34:01.698Z,39.70
2019-06-08T16:39:08.729Z,39.40
2019-06-08T16:44:13.046Z,38.80
2019-06-08T16:49:17.447Z,39.20
2019-06-08T16:54:21.765Z,38.20
2019-06-08T16:59:26.146Z,37.70
2019-06-08T17:04:31.213Z,38.40
2019-06-08T17:09:35.967Z,40.50
2019-06-08T17:14:40.822Z,39.90
2019-06-08T17:19:45.145Z,39.50
2019-06-08T17:24:49.797Z,36.10
2019-06-08T17:29:54.105Z,35.80
2019-06-08T17:34:58.468Z,35.90
2019-06-08T17:40:02.778Z,35.90
2019-06-08T17:45:09.108Z,35.90
2019-06-08T17:50:16.425Z,36.30
2019-06-08T17:55:20.812Z,34.70
2019-06-08T18:00:25.288Z,34.50
2019-06-08T18:05:29.969Z,33.70
2019-06-08T18:10:34.435Z,34.80
2019-06-08T18:15:40.594Z,36.70
2019-06-08T18:20:45.026Z,37.70
2019-06-08T18:25:50.083Z,38.80
2019-06-08T18:30:54.490Z,38.70
2019-06-08T18:35:58.883Z,40.10
2019-06-08T18:41:03.195Z,43.40
2019-06-08T18:46:07.857Z,46.50
2019-06-08T18:51:13.702Z,48.50
2019-06-08T18:56:18.371Z,51.10
2019-06-08T19:01:23.885Z,52.50
2019-06-08T19:06:28.930Z,54.00
2019-06-08T19:11:33.321Z,55.60
2019-06-08T19:16:40.848Z,57.20
2019-06-08T19:21:44.910Z,57.90
2019-06-08T19:26:49.461Z,58.80
2019-06-08T19:31:53.779Z,59.00
2019-06-08T19:36:58.086Z,60.20
2019-06-08T19:42:02.408Z,61.40
2019-06-08T19:47:08.063Z,61.70
2019-06-08T19:52:12.493Z,62.10
2019-06-08T19:57:18.409Z,63.70
2019-06-08T20:02:22.798Z,64.40
2019-06-08T20:07:27.986Z,64.70
2019-06-08T20:12:32.402Z,65.30
2019-06-08T20:17:37.248Z,66.50
2019-06-08T20:22:41.884Z,67.20
2019-06-08T20:27:49.880Z,68.40
2019-06-08T20:32:54.254Z,68.60
2019-06-08T20:37:58.402Z,68.90
2019-06-08T20:43:02.799Z,69.70
2019-06-08T20:48:07.199Z,71.50
2019-06-08T20:53:11.582Z,72.00
2019-06-08T20:58:17.721Z,73.40
2019-06-08T21:03:22.214Z,73.30
2019-06-08T21:08:28.190Z,74.10
2019-06-08T21:13:32.650Z,74.60
2019-06-08T21:18:37.970Z,75.20
2019-06-08T21:23:42.505Z,76.20
2019-06-08T21:28:49.839Z,77.20
2019-06-08T21:33:54.533Z,77.70
2019-06-08T21:39:02.205Z,77.60
2019-06-08T21:44:05.180Z,78.20
2019-06-08T21:49:09.777Z,78.00
2019-06-08T21:54:14.145Z,79.00
2019-06-08T21:59:18.461Z,79.40
2019-06-08T22:04:22.843Z,80.20
2019-06-08T22:09:28.537Z,79.90
2019-06-08T22:14:32.934Z,81.00
2019-06-08T22:19:38.062Z,81.10
2019-06-08T22:24:42.581Z,81.40
2019-06-08T22:29:48.446Z,81.40
2019-06-08T22:34:53.177Z,82.00
2019-06-08T22:39:59.678Z,82.10
2019-06-08T22:45:08.279Z,83.00
2019-06-08T22:50:14.985Z,82.70
2019-06-08T22:55:19.399Z,83.40
2019-06-08T23:00:24.884Z,83.90
2019-06-08T23:05:29.829Z,84.60
2019-06-08T23:49:38.000Z,86.30
2019-06-08T23:54:42.483Z,87.20
2019-06-08T23:59:47.805Z,87.50
